ブラジリア の空港の天気 - METARとTAF

ブラジリア国際空港 ( SBBR / BSB ) - ブラジル ブラジリア
飛行場実況気象(Metar)
観測時間06/17 16:00 BRT (06/17 19:00 UTC)
風向・風速東北東 3m/s
視程10km以上
天気現象
全天の4割程度の雲 雲底高度 1490m
気温26℃
湿度39%
気圧1022hPa
METARSBBR 171900Z 07006KT 020V110 9999 SCT049 26/11 Q1022
過去の天気等 Google飛行場航空写真 Wunderground天気予報

過去48時間のMETAR

飛行場予報(TAF)
発表時間: 6/12 18:00 BRT (6/12 21:00 UTC)
予報対象時間: 12日21時 BRT ~ 13日21時 BRT
風向・風速東 3m/s
視程10km以上
なし
12日23時 BRT ~ 13日1時 BRT に徐々に
風向・風速南 3m/s
13日9時 BRT ~ 13日11時 BRT に徐々に
風向・風速東 5m/s
TAF SBBR 122100Z 1300/1324 09005KT CAVOK TN16/1306Z TX27/1317Z
BECMG 1302/1304 17005KT
BECMG 1312/1314 08010KT RMK PFM